Time;durP1;ratioP1;P1;durP2;ratioP2;P2;SDS_P1;SDS_P2;PMS_P1;PMS_P2;Temp;Humidity;BMP_temperature;BMP_pressure;BME280_temperature;BME280_humidity;BME280_pressure;Samples;Min_cycle;Max_cycle;Signal;HPM_P1;HPM_P2
2023/05/19 00:01:09;;;;;;;4.70;3.30;;;10.70;65.30;;;;;;4996029;28;20435;-56
2023/05/19 00:03:39;;;;;;;4.90;2.80;;;10.70;65.50;;;;;;5000373;28;20466;-56
2023/05/19 00:06:09;;;;;;;4.10;3.10;;;10.70;65.60;;;;;;5001907;28;20522;-55
2023/05/19 00:08:37;;;;;;;6.87;2.97;;;10.60;65.70;;;;;;5002174;28;20419;-57
2023/05/19 00:11:03;;;;;;;9.30;3.97;;;10.60;66.00;;;;;;5001025;28;20908;-56
2023/05/19 00:13:29;;;;;;;8.07;3.50;;;10.60;66.00;;;;;;4997680;28;20972;-56
2023/05/19 00:15:55;;;;;;;6.73;3.57;;;10.60;65.80;;;;;;4998654;28;20447;-55
2023/05/19 00:18:21;;;;;;;11.90;3.57;;;10.60;66.00;;;;;;5002795;28;20275;-57
2023/05/19 00:20:46;;;;;;;7.03;3.20;;;10.60;66.30;;;;;;4997901;28;20211;-57
2023/05/19 00:23:12;;;;;;;4.40;2.93;;;10.50;66.30;;;;;;4994384;28;20204;-55
2023/05/19 00:25:38;;;;;;;3.03;2.63;;;10.50;66.50;;;;;;4996655;28;20181;-58
2023/05/19 00:28:03;;;;;;;4.93;2.73;;;10.50;66.50;;;;;;4998457;28;20259;-58
2023/05/19 00:30:29;;;;;;;4.67;3.20;;;10.50;66.70;;;;;;4996209;28;20177;-57
2023/05/19 00:32:55;;;;;;;7.50;3.20;;;10.50;66.80;;;;;;4999813;28;20204;-54
2023/05/19 00:35:22;;;;;;;4.73;2.90;;;10.40;67.10;;;;;;4997229;28;20530;-55
2023/05/19 00:37:48;;;;;;;5.47;4.00;;;10.40;67.00;;;;;;4998913;28;20912;-55
2023/05/19 00:40:14;;;;;;;10.30;3.03;;;10.40;67.30;;;;;;4995140;28;20438;-58
2023/05/19 00:42:40;;;;;;;7.10;3.30;;;10.40;67.70;;;;;;4997509;28;20697;-56
2023/05/19 00:45:06;;;;;;;8.40;3.37;;;10.40;67.70;;;;;;4997975;28;20665;-57
2023/05/19 00:47:32;;;;;;;5.20;3.23;;;10.40;68.00;;;;;;5000726;28;20455;-58
2023/05/19 00:49:58;;;;;;;16.63;3.43;;;10.40;68.10;;;;;;4996846;28;20880;-55
2023/05/19 00:52:24;;;;;;;7.00;3.27;;;10.30;68.10;;;;;;5000047;28;20334;-58
2023/05/19 00:54:51;;;;;;;8.73;3.30;;;10.30;68.70;;;;;;4999482;28;20605;-58
2023/05/19 00:57:17;;;;;;;5.37;2.80;;;10.30;69.00;;;;;;5000037;28;20447;-56
2023/05/19 00:59:42;;;;;;;5.30;2.93;;;10.30;69.20;;;;;;4995839;28;20443;-56
2023/05/19 01:02:08;;;;;;;5.20;3.13;;;10.30;69.20;;;;;;4998675;28;20458;-55
2023/05/19 01:04:36;;;;;;;12.40;3.00;;;10.30;69.00;;;;;;4999769;28;20212;-55
2023/05/19 01:07:02;;;;;;;8.23;2.90;;;10.20;68.90;;;;;;4996192;28;20173;-56
2023/05/19 01:09:29;;;;;;;7.83;3.40;;;10.20;69.80;;;;;;5002434;28;20804;-55
2023/05/19 01:11:55;;;;;;;6.83;3.30;;;10.20;69.40;;;;;;5004067;28;20435;-58
2023/05/19 01:14:21;;;;;;;5.90;3.47;;;10.20;69.70;;;;;;5003670;28;20547;-55
2023/05/19 01:17:04;;;;;;;7.17;2.83;;;10.20;69.90;;;;;;4994371;28;20177;-56
2023/05/19 01:19:35;;;;;;;9.93;3.33;;;10.20;70.40;;;;;;5003999;28;20449;-56
2023/05/19 01:22:11;;;;;;;7.83;3.50;;;10.10;70.50;;;;;;4999432;28;20431;-57
2023/05/19 01:25:01;;;;;;;6.43;3.53;;;10.10;70.70;;;;;;4995895;28;20464;-56
2023/05/19 01:27:38;;;;;;;3.47;2.90;;;10.10;71.10;;;;;;4998701;28;20493;-57
2023/05/19 01:30:27;;;;;;;7.53;3.37;;;10.10;71.60;;;;;;4993662;28;20439;-54
2023/05/19 01:32:57;;;;;;;5.00;3.43;;;10.10;72.10;;;;;;4993172;28;20456;-57
2023/05/19 01:35:23;;;;;;;6.90;3.43;;;10.10;72.40;;;;;;5000065;28;20619;-58
2023/05/19 01:37:53;;;;;;;3.93;3.03;;;10.00;72.30;;;;;;5005029;28;21113;-55
2023/05/19 01:40:21;;;;;;;6.97;3.07;;;10.00;72.50;;;;;;5004887;28;20522;-58
2023/05/19 01:42:48;;;;;;;5.47;3.17;;;10.00;72.40;;;;;;5004822;28;20479;-56
2023/05/19 01:45:14;;;;;;;4.67;2.90;;;10.00;72.80;;;;;;5003710;28;21208;-56
2023/05/19 01:47:43;;;;;;;8.00;3.43;;;9.90;74.50;;;;;;5002604;28;20427;-55
2023/05/19 01:50:09;;;;;;;4.53;3.03;;;9.90;75.10;;;;;;5002408;28;20858;-56
2023/05/19 01:52:35;;;;;;;6.20;3.30;;;9.90;75.20;;;;;;5002251;28;20589;-55
2023/05/19 01:55:01;;;;;;;4.00;3.30;;;9.80;75.80;;;;;;5006971;28;20444;-55
2023/05/19 01:57:48;;;;;;;3.80;3.20;;;9.80;76.20;;;;;;5001572;28;20859;-55
2023/05/19 02:00:17;;;;;;;6.13;4.00;;;9.80;77.30;;;;;;5002969;28;20370;-55
2023/05/19 02:03:06;;;;;;;9.03;3.77;;;9.80;77.70;;;;;;5000234;28;20486;-57
2023/05/19 02:05:41;;;;;;;10.03;3.60;;;9.70;78.30;;;;;;4998535;28;20435;-56
2023/05/19 02:08:30;;;;;;;8.70;4.03;;;9.70;78.60;;;;;;4999935;28;20430;-56
2023/05/19 02:11:24;;;;;;;5.60;3.17;;;9.70;79.40;;;;;;5002648;28;20537;-56
2023/05/19 02:13:55;;;;;;;6.13;4.17;;;9.70;79.30;;;;;;4978644;28;20532;-56
2023/05/19 02:16:26;;;;;;;15.70;3.97;;;9.60;79.60;;;;;;5007608;28;20526;-55
2023/05/19 02:18:52;;;;;;;5.07;2.80;;;9.60;80.50;;;;;;5004815;28;20534;-56
2023/05/19 02:21:18;;;;;;;10.27;3.50;;;9.60;80.90;;;;;;5007750;28;20432;-56
2023/05/19 02:23:44;;;;;;;7.67;4.17;;;9.60;81.70;;;;;;5005108;28;20473;-56
2023/05/19 02:26:10;;;;;;;10.40;4.43;;;9.60;81.70;;;;;;5005921;28;20176;-58
2023/05/19 02:28:35;;;;;;;7.67;3.67;;;9.60;82.50;;;;;;5000195;28;20555;-56
2023/05/19 02:31:05;;;;;;;6.43;3.70;;;9.50;82.80;;;;;;5008466;28;20187;-56
2023/05/19 02:33:31;;;;;;;9.20;3.70;;;9.50;83.20;;;;;;5022448;28;20208;-56
2023/05/19 02:35:57;;;;;;;6.00;3.40;;;9.50;84.20;;;;;;5007172;28;20534;-56
2023/05/19 02:38:22;;;;;;;4.30;3.30;;;9.50;84.60;;;;;;5004641;28;20577;-58
2023/05/19 02:40:51;;;;;;;6.33;3.37;;;9.50;84.90;;;;;;5003522;28;20172;-57
2023/05/19 02:43:17;;;;;;;4.43;3.70;;;9.50;84.70;;;;;;5004012;28;20200;-57
2023/05/19 02:45:43;;;;;;;4.57;3.40;;;9.40;84.60;;;;;;5006603;28;20429;-55
2023/05/19 02:48:08;;;;;;;7.43;3.93;;;9.40;85.40;;;;;;5001768;28;20259;-58
2023/05/19 02:50:34;;;;;;;5.57;3.67;;;9.40;86.20;;;;;;5003269;28;20235;-59
2023/05/19 02:53:01;;;;;;;7.47;3.40;;;9.40;85.40;;;;;;5002666;28;20216;-56
2023/05/19 02:55:26;;;;;;;5.00;3.17;;;9.40;85.50;;;;;;5000460;28;20184;-56
2023/05/19 02:57:52;;;;;;;5.30;3.57;;;9.40;86.20;;;;;;5001653;28;20442;-56
2023/05/19 03:00:18;;;;;;;9.77;3.40;;;9.40;86.70;;;;;;5002870;28;20203;-55
2023/05/19 03:02:43;;;;;;;8.03;3.47;;;9.40;86.50;;;;;;5002576;28;20265;-57
2023/05/19 03:05:09;;;;;;;3.23;2.93;;;9.40;86.30;;;;;;4999670;28;20940;-58
2023/05/19 03:07:35;;;;;;;4.87;3.53;;;9.40;86.20;;;;;;5004655;28;20165;-55
2023/05/19 03:10:05;;;;;;;6.03;3.13;;;9.40;86.80;;;;;;5001386;28;20177;-56
2023/05/19 03:12:32;;;;;;;3.67;2.83;;;9.40;86.20;;;;;;5002366;28;20547;-56
2023/05/19 03:14:58;;;;;;;5.07;3.43;;;9.40;86.50;;;;;;4999674;28;20481;-57
2023/05/19 03:17:24;;;;;;;4.10;3.30;;;9.30;87.60;;;;;;5002537;28;20531;-57
2023/05/19 03:19:50;;;;;;;4.00;3.60;;;9.30;88.00;;;;;;5001847;28;20605;-56
2023/05/19 03:22:17;;;;;;;6.17;3.67;;;9.30;88.40;;;;;;5002560;28;20745;-56
2023/05/19 03:24:43;;;;;;;5.13;3.13;;;9.30;88.50;;;;;;5000065;28;20295;-57
2023/05/19 03:27:08;;;;;;;4.10;3.23;;;9.30;88.60;;;;;;5000642;28;20546;-59
2023/05/19 03:29:34;;;;;;;4.83;3.57;;;9.30;88.30;;;;;;5000965;28;20177;-55
2023/05/19 03:32:00;;;;;;;3.63;3.10;;;9.20;89.50;;;;;;5002284;28;20260;-56
2023/05/19 03:34:26;;;;;;;6.60;3.40;;;9.20;89.60;;;;;;5003883;28;20211;-55
2023/05/19 03:36:51;;;;;;;4.00;3.13;;;9.20;89.50;;;;;;4999837;28;20501;-57
2023/05/19 03:39:17;;;;;;;5.07;3.80;;;9.20;89.40;;;;;;4997074;28;20177;-56
2023/05/19 03:41:42;;;;;;;5.73;4.40;;;9.20;89.50;;;;;;5014124;28;20172;-56
2023/05/19 03:44:08;;;;;;;5.50;3.33;;;9.20;89.60;;;;;;4997623;28;20294;-56
2023/05/19 03:46:33;;;;;;;6.73;3.90;;;9.20;90.00;;;;;;5000496;28;20173;-57
2023/05/19 03:48:59;;;;;;;4.83;3.50;;;9.20;89.30;;;;;;5000535;28;20844;-55
2023/05/19 03:51:27;;;;;;;6.70;3.70;;;9.20;89.90;;;;;;5002193;28;20188;-54
2023/05/19 03:53:53;;;;;;;4.90;3.43;;;9.10;90.00;;;;;;4995558;28;20206;-56
2023/05/19 03:56:21;;;;;;;5.63;3.77;;;9.10;90.20;;;;;;5001397;28;20439;-55
2023/05/19 03:58:48;;;;;;;8.43;4.00;;;9.10;90.40;;;;;;5001075;28;20181;-54
2023/05/19 04:01:14;;;;;;;6.43;3.50;;;9.10;91.00;;;;;;5001427;28;20885;-56
2023/05/19 04:03:40;;;;;;;4.47;3.90;;;9.10;91.10;;;;;;5002537;28;20475;-57
2023/05/19 04:06:06;;;;;;;9.33;4.60;;;9.10;91.40;;;;;;4998015;28;20548;-58
2023/05/19 04:08:32;;;;;;;6.37;4.27;;;9.10;91.60;;;;;;4996839;28;20872;-59
2023/05/19 04:10:57;;;;;;;6.80;4.63;;;9.10;91.40;;;;;;5000932;28;20510;-53
2023/05/19 04:13:23;;;;;;;6.53;4.20;;;9.10;92.10;;;;;;5000408;28;20208;-56
2023/05/19 04:15:48;;;;;;;5.30;3.50;;;9.10;93.30;;;;;;5000744;28;20670;-56
2023/05/19 04:18:14;;;;;;;7.53;4.60;;;9.10;93.20;;;;;;5000873;28;20190;-56
2023/05/19 04:20:39;;;;;;;4.93;3.87;;;9.20;92.00;;;;;;5001185;28;20275;-56
2023/05/19 04:23:05;;;;;;;7.47;4.30;;;9.20;91.30;;;;;;5000103;28;20211;-57
2023/05/19 04:25:32;;;;;;;3.83;3.43;;;9.10;91.30;;;;;;4997666;28;20170;-55
2023/05/19 04:27:57;;;;;;;8.93;3.97;;;9.10;91.60;;;;;;5001997;28;20173;-57
2023/05/19 04:30:23;;;;;;;8.20;4.07;;;9.10;91.70;;;;;;5001591;28;20415;-55
2023/05/19 04:32:49;;;;;;;8.37;4.10;;;9.10;91.80;;;;;;4977348;28;21112;-57
2023/05/19 04:35:16;;;;;;;5.87;4.30;;;9.10;91.50;;;;;;4995029;28;20810;-55
2023/05/19 04:37:44;;;;;;;7.67;4.00;;;9.10;91.10;;;;;;5000302;28;20185;-54
2023/05/19 04:40:11;;;;;;;5.17;4.13;;;9.20;90.80;;;;;;4994810;28;20489;-54
2023/05/19 04:42:40;;;;;;;9.67;3.80;;;9.10;90.20;;;;;;5000296;28;20454;-56
2023/05/19 04:45:07;;;;;;;6.23;4.43;;;9.20;90.10;;;;;;4998119;28;20454;-57
2023/05/19 04:47:36;;;;;;;10.93;4.10;;;9.20;90.20;;;;;;4998456;28;20787;-56
2023/05/19 04:50:03;;;;;;;7.77;4.40;;;9.20;90.60;;;;;;4997372;28;20443;-53
2023/05/19 04:52:28;;;;;;;6.00;4.40;;;9.20;90.30;;;;;;4999588;28;20466;-57
2023/05/19 04:54:54;;;;;;;9.77;3.77;;;9.20;90.10;;;;;;4999009;28;20449;-55
2023/05/19 04:57:19;;;;;;;7.10;4.47;;;9.20;89.60;;;;;;4997599;28;20184;-57
2023/05/19 04:59:45;;;;;;;8.03;3.70;;;9.30;89.40;;;;;;4997201;28;20234;-55
2023/05/19 05:02:11;;;;;;;10.63;4.40;;;9.30;89.40;;;;;;5000583;28;20268;-55
2023/05/19 05:04:39;;;;;;;5.53;4.03;;;9.30;88.60;;;;;;5001154;28;20672;-55
2023/05/19 05:07:05;;;;;;;10.03;3.70;;;9.40;89.20;;;;;;4998772;28;20247;-57
2023/05/19 05:09:30;;;;;;;4.57;3.67;;;9.40;88.60;;;;;;4996052;28;20431;-57
2023/05/19 05:11:56;;;;;;;8.33;4.10;;;9.40;88.60;;;;;;4996166;28;20657;-55
2023/05/19 05:14:22;;;;;;;6.67;4.00;;;9.50;87.80;;;;;;4997653;28;20283;-55
2023/05/19 05:16:49;;;;;;;6.83;4.47;;;9.50;86.50;;;;;;4999549;28;20986;-55
2023/05/19 05:19:15;;;;;;;5.40;4.30;;;9.50;86.80;;;;;;4997954;28;20227;-54
2023/05/19 05:21:42;;;;;;;6.70;4.60;;;9.50;85.70;;;;;;5000212;28;20431;-56
2023/05/19 05:24:08;;;;;;;8.90;5.03;;;9.50;85.30;;;;;;4997641;28;20236;-54
2023/05/19 05:26:34;;;;;;;9.30;4.00;;;9.60;84.00;;;;;;4999792;28;21335;-55
2023/05/19 05:29:00;;;;;;;10.07;4.50;;;9.60;83.70;;;;;;5000872;28;20441;-55
2023/05/19 05:31:26;;;;;;;10.03;4.50;;;9.70;83.30;;;;;;4994394;28;20571;-55
2023/05/19 05:33:52;;;;;;;7.57;3.70;;;9.70;82.50;;;;;;4999680;28;20455;-56
2023/05/19 05:36:17;;;;;;;11.43;4.33;;;9.80;82.70;;;;;;4998063;28;20208;-56
2023/05/19 05:38:43;;;;;;;8.87;4.50;;;9.90;83.10;;;;;;4996505;28;21624;-55
2023/05/19 05:41:08;;;;;;;9.03;4.90;;;10.00;81.30;;;;;;4998087;28;20180;-54
2023/05/19 05:43:34;;;;;;;9.00;4.90;;;10.10;80.80;;;;;;4999582;28;20201;-55
2023/05/19 05:45:59;;;;;;;7.53;4.40;;;10.20;80.50;;;;;;4999458;28;20189;-55
2023/05/19 05:48:26;;;;;;;11.83;4.77;;;10.30;79.60;;;;;;5000081;28;20250;-54
2023/05/19 05:50:52;;;;;;;7.60;4.10;;;10.40;79.00;;;;;;4995956;28;20179;-54
2023/05/19 05:53:20;;;;;;;6.47;3.83;;;10.50;78.20;;;;;;4996850;28;20467;-54
2023/05/19 05:55:46;;;;;;;14.97;4.10;;;10.60;77.60;;;;;;5000387;28;20545;-56
2023/05/19 05:58:13;;;;;;;6.20;3.87;;;10.80;76.30;;;;;;4999425;28;20530;-53
2023/05/19 06:00:42;;;;;;;8.13;4.07;;;10.80;75.10;;;;;;4984307;28;20824;-57
2023/05/19 06:03:08;;;;;;;13.20;4.07;;;10.90;73.90;;;;;;4985457;28;20545;-56
2023/05/19 06:05:34;;;;;;;7.03;4.60;;;10.90;73.20;;;;;;4993218;28;20517;-53
2023/05/19 06:08:00;;;;;;;10.90;5.17;;;11.00;72.80;;;;;;4990194;28;20894;-56
2023/05/19 06:10:27;;;;;;;6.80;4.40;;;11.00;72.50;;;;;;4996045;28;20505;-53
2023/05/19 06:12:53;;;;;;;7.47;3.60;;;11.10;72.30;;;;;;4992704;28;20287;-55
2023/05/19 06:15:18;;;;;;;18.00;5.17;;;11.10;71.80;;;;;;4995196;28;20534;-55
2023/05/19 06:17:44;;;;;;;5.67;3.93;;;11.20;71.70;;;;;;4993738;28;20176;-55
2023/05/19 06:20:11;;;;;;;5.77;3.47;;;11.20;71.00;;;;;;4992965;28;20188;-53
2023/05/19 06:22:37;;;;;;;8.43;3.50;;;11.30;69.90;;;;;;4999845;28;20313;-56
2023/05/19 06:25:04;;;;;;;7.73;3.80;;;11.40;69.20;;;;;;5003622;28;20567;-57
2023/05/19 06:27:30;;;;;;;8.67;3.50;;;11.40;68.30;;;;;;5003861;28;20245;-57
2023/05/19 06:29:56;;;;;;;10.00;3.83;;;11.40;68.00;;;;;;4999378;28;20434;-57
2023/05/19 06:32:21;;;;;;;8.87;4.00;;;11.40;67.70;;;;;;5001754;28;20230;-55
2023/05/19 06:34:53;;;;;;;6.40;3.30;;;11.50;68.10;;;;;;5004172;28;20197;-56
2023/05/19 06:37:22;;;;;;;10.67;3.70;;;11.40;68.00;;;;;;5003575;28;20260;-55
2023/05/19 06:39:52;;;;;;;5.37;3.73;;;11.40;68.50;;;;;;5002125;28;20431;-57
2023/05/19 06:42:21;;;;;;;14.33;4.03;;;11.30;68.10;;;;;;4998864;28;20466;-57
2023/05/19 06:44:51;;;;;;;5.80;3.60;;;11.40;68.60;;;;;;5003030;28;20882;-57
2023/05/19 06:47:17;;;;;;;9.03;3.70;;;11.40;68.90;;;;;;5006350;28;20427;-55
2023/05/19 06:49:49;;;;;;;6.53;3.33;;;11.30;68.90;;;;;;5005782;28;20427;-55
2023/05/19 06:52:15;;;;;;;5.30;3.13;;;11.20;69.10;;;;;;5000403;28;20854;-55
2023/05/19 06:54:41;;;;;;;7.10;3.80;;;11.20;69.30;;;;;;5000568;28;20466;-56
2023/05/19 06:57:06;;;;;;;8.57;3.90;;;11.20;69.40;;;;;;5001645;28;20435;-58
2023/05/19 06:59:32;;;;;;;7.40;3.47;;;11.20;69.40;;;;;;5000089;28;20654;-55
2023/05/19 07:01:57;;;;;;;9.43;4.10;;;11.20;69.70;;;;;;5001383;28;20181;-56
2023/05/19 07:04:23;;;;;;;8.00;4.00;;;11.20;70.30;;;;;;4998566;28;20224;-56
2023/05/19 07:06:49;;;;;;;6.53;3.50;;;11.20;70.70;;;;;;5004696;28;20172;-56
2023/05/19 07:09:15;;;;;;;6.00;3.93;;;11.30;70.20;;;;;;5004123;28;20172;-56
2023/05/19 07:11:40;;;;;;;4.50;3.67;;;11.30;69.60;;;;;;5002708;28;20697;-56
2023/05/19 07:14:06;;;;;;;7.10;3.40;;;11.30;69.70;;;;;;4998296;28;20399;-54
2023/05/19 07:16:31;;;;;;;8.20;3.93;;;11.40;69.30;;;;;;5006804;28;20229;-56
2023/05/19 07:18:57;;;;;;;9.60;3.97;;;11.40;68.90;;;;;;4996204;28;20251;-57
2023/05/19 07:21:23;;;;;;;5.60;3.23;;;11.50;68.50;;;;;;5000015;28;20684;-54
2023/05/19 07:23:48;;;;;;;4.77;3.47;;;11.50;68.20;;;;;;5000025;28;20212;-55
2023/05/19 07:26:14;;;;;;;6.50;4.00;;;11.60;68.40;;;;;;5001597;28;20271;-56
2023/05/19 07:28:41;;;;;;;11.43;3.70;;;11.70;69.70;;;;;;5001003;28;20606;-55
2023/05/19 07:31:07;;;;;;;8.37;4.17;;;11.80;69.60;;;;;;5003274;28;20176;-56
2023/05/19 07:33:32;;;;;;;14.50;3.80;;;11.90;69.10;;;;;;4999012;28;20451;-56
2023/05/19 07:35:58;;;;;;;7.57;3.93;;;12.00;68.20;;;;;;5001534;28;20180;-54
2023/05/19 07:38:24;;;;;;;12.30;3.80;;;12.00;68.10;;;;;;5001069;28;20252;-54
2023/05/19 07:40:49;;;;;;;4.60;3.77;;;12.10;67.60;;;;;;4997947;28;20180;-53
2023/05/19 07:43:15;;;;;;;7.60;3.53;;;12.10;67.50;;;;;;5003670;28;20200;-54
2023/05/19 07:45:41;;;;;;;6.77;3.10;;;12.20;67.80;;;;;;5005812;28;20601;-54
2023/05/19 07:48:06;;;;;;;6.83;3.43;;;12.20;68.10;;;;;;5003409;28;20208;-56
2023/05/19 07:50:32;;;;;;;5.83;3.30;;;12.20;67.80;;;;;;4995761;28;20242;-54
2023/05/19 07:52:58;;;;;;;10.20;4.10;;;12.30;67.70;;;;;;4997796;28;20330;-56
2023/05/19 07:55:23;;;;;;;8.00;3.17;;;12.20;67.50;;;;;;5019862;28;20183;-55
2023/05/19 07:57:49;;;;;;;6.33;3.80;;;12.20;67.30;;;;;;4998206;28;20296;-55
2023/05/19 08:00:16;;;;;;;7.63;3.67;;;12.30;67.30;;;;;;5002620;28;20177;-56
2023/05/19 08:02:42;;;;;;;9.50;3.30;;;12.30;67.10;;;;;;4982474;28;20463;-55
2023/05/19 08:05:09;;;;;;;9.00;3.60;;;12.30;66.90;;;;;;4999722;28;20486;-54
2023/05/19 08:07:35;;;;;;;7.90;3.77;;;12.40;67.00;;;;;;5001763;28;20555;-58
2023/05/19 08:10:01;;;;;;;5.60;3.40;;;12.40;66.90;;;;;;4998964;28;20463;-54
2023/05/19 08:12:26;;;;;;;6.90;3.67;;;12.40;65.60;;;;;;4997952;28;20471;-55
2023/05/19 08:14:52;;;;;;;10.07;3.77;;;12.50;65.90;;;;;;5006244;28;20319;-55
2023/05/19 08:17:18;;;;;;;6.27;3.50;;;12.50;66.00;;;;;;5001025;28;20180;-56
2023/05/19 08:19:43;;;;;;;6.80;3.00;;;12.60;66.00;;;;;;4998059;28;20267;-54
2023/05/19 08:22:09;;;;;;;10.20;3.93;;;12.70;65.60;;;;;;4999099;28;20259;-55
2023/05/19 08:24:35;;;;;;;13.20;3.63;;;12.80;65.00;;;;;;4997630;28;20291;-56
2023/05/19 08:27:01;;;;;;;6.10;3.27;;;12.90;65.30;;;;;;4997225;28;20687;-56
2023/05/19 08:29:26;;;;;;;3.10;2.73;;;13.00;65.20;;;;;;5000294;28;20180;-56
2023/05/19 08:31:52;;;;;;;6.17;3.43;;;13.00;65.10;;;;;;5000516;28;20169;-58
2023/05/19 08:34:18;;;;;;;4.43;3.40;;;13.10;65.20;;;;;;5002093;28;20274;-55
2023/05/19 08:36:44;;;;;;;12.07;3.57;;;13.10;65.10;;;;;;5001818;28;20199;-55
2023/05/19 08:39:10;;;;;;;8.17;3.80;;;13.20;65.00;;;;;;5003625;28;21241;-55
2023/05/19 08:41:36;;;;;;;7.43;3.60;;;13.20;65.40;;;;;;4998736;28;20435;-55
2023/05/19 08:44:03;;;;;;;7.30;3.30;;;13.30;65.10;;;;;;5001968;28;20460;-56
2023/05/19 08:46:29;;;;;;;5.37;3.00;;;13.40;64.40;;;;;;4999298;28;20218;-57
2023/05/19 08:49:01;;;;;;;7.03;3.43;;;13.50;63.50;;;;;;5001043;28;20463;-57
2023/05/19 08:51:34;;;;;;;7.00;4.10;;;13.60;63.20;;;;;;4994433;28;20192;-58
2023/05/19 08:54:11;;;;;;;7.23;3.70;;;13.60;63.40;;;;;;4993601;28;20562;-55
2023/05/19 08:56:37;;;;;;;5.53;3.23;;;13.60;63.50;;;;;;4990958;28;20517;-57
2023/05/19 08:59:03;;;;;;;4.43;2.77;;;13.60;63.50;;;;;;4999067;28;20549;-56
2023/05/19 09:01:30;;;;;;;4.67;3.40;;;13.60;62.60;;;;;;4992654;28;20994;-57
2023/05/19 09:03:56;;;;;;;7.60;2.90;;;13.50;62.90;;;;;;4991388;28;20485;-57
2023/05/19 09:06:22;;;;;;;6.10;3.77;;;13.50;63.20;;;;;;4996871;28;20433;-58
2023/05/19 09:08:47;;;;;;;3.30;3.00;;;13.50;63.60;;;;;;4995908;28;20531;-57
2023/05/19 09:11:13;;;;;;;6.00;3.17;;;13.50;63.40;;;;;;4997883;28;21058;-54
2023/05/19 09:13:39;;;;;;;5.77;3.40;;;13.50;63.30;;;;;;4995635;28;20195;-56
2023/05/19 09:16:06;;;;;;;7.67;3.50;;;13.60;63.70;;;;;;4990394;28;20263;-56
2023/05/19 09:18:32;;;;;;;5.80;3.40;;;13.70;63.30;;;;;;4991874;28;20751;-57
2023/05/19 09:21:01;;;;;;;3.00;2.70;;;14.00;63.70;;;;;;4996319;28;20439;-55
2023/05/19 09:23:32;;;;;;;4.73;3.27;;;14.20;64.20;;;;;;4994675;28;20209;-56
2023/05/19 09:26:03;;;;;;;11.00;3.60;;;14.40;63.60;;;;;;4992982;28;20428;-57
2023/05/19 09:28:32;;;;;;;6.67;3.47;;;14.60;63.30;;;;;;4995579;28;20440;-58
2023/05/19 09:31:08;;;;;;;4.00;3.23;;;14.80;62.70;;;;;;4995217;28;20466;-56
2023/05/19 09:33:42;;;;;;;7.30;3.43;;;15.00;63.20;;;;;;4992138;28;20891;-56
2023/05/19 09:36:09;;;;;;;6.10;3.00;;;15.30;62.70;;;;;;4992650;28;20438;-56
2023/05/19 09:38:37;;;;;;;5.03;2.83;;;15.60;62.10;;;;;;4991791;28;20560;-55
2023/05/19 09:41:06;;;;;;;12.00;3.43;;;15.80;61.20;;;;;;4995195;28;20446;-56
2023/05/19 09:43:33;;;;;;;5.63;3.63;;;15.90;60.10;;;;;;4991489;28;20546;-57
2023/05/19 09:46:06;;;;;;;10.73;3.47;;;15.90;59.50;;;;;;4992056;28;20963;-58
2023/05/19 09:48:33;;;;;;;9.20;2.83;;;15.80;59.50;;;;;;4998409;28;20542;-58
2023/05/19 09:51:00;;;;;;;5.90;3.30;;;15.60;59.00;;;;;;4992628;28;20447;-57
2023/05/19 09:53:26;;;;;;;5.33;3.77;;;15.60;59.20;;;;;;4994971;28;20495;-56
2023/05/19 09:55:57;;;;;;;7.73;3.27;;;15.60;59.80;;;;;;4994190;28;20535;-57
2023/05/19 09:58:25;;;;;;;4.70;3.30;;;15.50;59.30;;;;;;5002352;28;20770;-55
2023/05/19 10:00:53;;;;;;;5.13;2.67;;;15.50;59.50;;;;;;5000916;28;20557;-58
2023/05/19 10:03:21;;;;;;;6.30;3.30;;;15.40;59.50;;;;;;5000466;28;20473;-56
2023/05/19 10:05:47;;;;;;;5.17;3.20;;;15.30;59.70;;;;;;4998531;28;20435;-58
2023/05/19 10:08:16;;;;;;;5.50;3.60;;;15.20;59.70;;;;;;4998624;28;20427;-58
2023/05/19 10:10:44;;;;;;;10.83;3.67;;;15.20;60.10;;;;;;5000478;28;20435;-58
2023/05/19 10:13:10;;;;;;;6.57;3.40;;;15.30;61.20;;;;;;5004417;28;20480;-56
2023/05/19 10:15:36;;;;;;;5.20;3.37;;;15.60;61.90;;;;;;4996335;28;20439;-57
2023/05/19 10:18:03;;;;;;;5.00;3.60;;;15.90;60.40;;;;;;5001981;28;20452;-58
2023/05/19 10:20:30;;;;;;;10.63;3.67;;;15.90;59.00;;;;;;4995546;28;20924;-57
2023/05/19 10:22:55;;;;;;;5.30;3.43;;;16.00;58.30;;;;;;4995244;28;20466;-59
2023/05/19 10:25:21;;;;;;;7.87;3.37;;;16.00;58.30;;;;;;4994548;28;20527;-55
2023/05/19 10:28:02;;;;;;;5.63;3.90;;;16.00;59.00;;;;;;4990984;28;20177;-56
2023/05/19 10:30:45;;;;;;;5.20;3.37;;;16.00;58.30;;;;;;5000619;28;20259;-55
2023/05/19 10:33:16;;;;;;;5.17;3.60;;;15.90;58.20;;;;;;4995864;28;21035;-56
2023/05/19 10:36:01;;;;;;;6.57;3.63;;;15.80;58.60;;;;;;4998474;28;20489;-57
2023/05/19 10:38:38;;;;;;;5.63;3.17;;;15.60;58.80;;;;;;4998073;28;21142;-57
2023/05/19 10:41:32;;;;;;;4.97;3.63;;;15.40;58.90;;;;;;5000958;28;22380;-56
2023/05/19 10:44:06;;;;;;;6.20;4.10;;;15.30;59.40;;;;;;4988793;28;20628;-57
2023/05/19 10:46:31;;;;;;;6.00;3.70;;;15.20;59.20;;;;;;4999844;28;20542;-55
2023/05/19 10:48:58;;;;;;;6.83;3.73;;;15.00;59.30;;;;;;5000214;28;20539;-51
2023/05/19 10:51:30;;;;;;;5.63;3.47;;;14.70;59.60;;;;;;4999479;28;20596;-57
2023/05/19 10:53:57;;;;;;;5.00;4.13;;;14.50;59.80;;;;;;4997646;28;20470;-57
2023/05/19 10:56:28;;;;;;;3.60;3.27;;;14.40;60.20;;;;;;5003816;28;20439;-57
2023/05/19 10:58:55;;;;;;;8.70;4.57;;;14.30;60.40;;;;;;4998766;28;20439;-55
2023/05/19 11:01:23;;;;;;;7.03;4.37;;;14.20;60.30;;;;;;4989568;28;20434;-55
2023/05/19 11:03:50;;;;;;;5.40;4.50;;;14.20;60.70;;;;;;4993831;28;21151;-54
2023/05/19 11:06:23;;;;;;;13.33;4.80;;;14.30;62.60;;;;;;4996857;28;20842;-55
2023/05/19 11:08:59;;;;;;;12.37;5.00;;;14.40;63.80;;;;;;4983105;28;21147;-56
2023/05/19 11:11:42;;;;;;;8.80;4.50;;;14.50;63.90;;;;;;4998169;28;20447;-56
2023/05/19 11:14:11;;;;;;;9.43;3.90;;;14.60;63.60;;;;;;4988850;28;20505;-57
2023/05/19 11:16:40;;;;;;;9.63;4.50;;;14.70;62.90;;;;;;4999638;28;20447;-55
2023/05/19 11:19:06;;;;;;;9.73;4.40;;;14.70;62.10;;;;;;4996987;28;20953;-58
2023/05/19 11:21:46;;;;;;;6.77;4.50;;;14.70;61.50;;;;;;4986280;28;20435;-57
2023/05/19 11:24:38;;;;;;;8.67;3.57;;;14.60;61.20;;;;;;4994003;28;20208;-60
2023/05/19 11:27:19;;;;;;;5.93;3.80;;;14.40;62.10;;;;;;4987563;28;20459;-56
2023/05/19 11:29:47;;;;;;;6.53;4.30;;;14.30;61.40;;;;;;4995376;28;20440;-58
2023/05/19 11:32:13;;;;;;;11.03;4.30;;;14.20;61.40;;;;;;4989003;28;20416;-56
2023/05/19 11:34:40;;;;;;;11.80;4.40;;;14.10;61.30;;;;;;5002072;28;20801;-56
2023/05/19 11:37:06;;;;;;;6.57;4.83;;;14.00;61.00;;;;;;4991748;28;20516;-56
2023/05/19 11:39:32;;;;;;;8.37;4.60;;;14.00;61.00;;;;;;4984860;28;20443;-56
2023/05/19 11:41:57;;;;;;;6.03;4.03;;;14.00;61.60;;;;;;4997589;28;20181;-56
2023/05/19 11:44:23;;;;;;;5.90;3.87;;;13.90;62.10;;;;;;4995497;28;20507;-58
2023/05/19 11:46:49;;;;;;;6.20;4.10;;;13.90;62.10;;;;;;5004566;28;20267;-55
2023/05/19 11:49:15;;;;;;;6.70;4.20;;;13.90;62.30;;;;;;4997929;28;20221;-56
2023/05/19 11:51:44;;;;;;;7.10;4.47;;;13.90;62.30;;;;;;4998540;28;20264;-58
2023/05/19 11:54:11;;;;;;;8.33;4.70;;;13.90;62.30;;;;;;4998117;28;20587;-56
2023/05/19 11:56:43;;;;;;;5.70;4.13;;;14.00;62.60;;;;;;5000442;28;20504;-55
2023/05/19 11:59:09;;;;;;;8.47;4.60;;;14.00;62.30;;;;;;5010597;28;20441;-57
2023/05/19 12:01:35;;;;;;;8.93;4.43;;;14.10;61.90;;;;;;5000348;28;20487;-56
2023/05/19 12:04:01;;;;;;;6.03;4.63;;;14.10;61.90;;;;;;4991814;28;20821;-58
2023/05/19 12:06:28;;;;;;;7.83;4.50;;;14.20;61.40;;;;;;4996641;28;20435;-56
2023/05/19 12:08:54;;;;;;;5.20;4.03;;;14.20;61.20;;;;;;4998908;28;21045;-58
2023/05/19 12:11:21;;;;;;;8.80;4.50;;;14.20;61.50;;;;;;4997093;28;20469;-55
2023/05/19 12:13:49;;;;;;;5.97;4.20;;;14.10;60.90;;;;;;5005815;28;20455;-56
2023/05/19 12:16:14;;;;;;;8.37;4.43;;;14.00;60.80;;;;;;5004503;28;20530;-55
2023/05/19 12:18:41;;;;;;;12.10;4.83;;;13.90;60.70;;;;;;4990029;28;20515;-54
2023/05/19 12:21:06;;;;;;;7.47;4.90;;;13.90;61.10;;;;;;5003888;28;20202;-54
2023/05/19 12:23:33;;;;;;;5.40;4.53;;;13.80;61.70;;;;;;5002922;28;20837;-55
2023/05/19 12:25:59;;;;;;;7.70;5.07;;;13.70;62.20;;;;;;5004649;28;20180;-56
2023/05/19 12:28:25;;;;;;;9.07;4.60;;;13.70;62.60;;;;;;4994650;28;20447;-55
2023/05/19 12:30:52;;;;;;;8.90;4.90;;;13.60;62.80;;;;;;4993945;28;20435;-56
2023/05/19 12:33:18;;;;;;;10.03;5.40;;;13.60;62.80;;;;;;4998258;28;20261;-56
2023/05/19 12:35:46;;;;;;;7.77;5.60;;;13.60;63.10;;;;;;4998860;28;20450;-57
2023/05/19 12:38:13;;;;;;;7.63;4.90;;;13.60;63.30;;;;;;4994850;28;20497;-57
2023/05/19 12:40:39;;;;;;;7.43;5.20;;;13.70;63.20;;;;;;5002525;28;20519;-54
2023/05/19 12:43:05;;;;;;;7.03;5.80;;;13.70;63.30;;;;;;4994699;28;20578;-55
2023/05/19 12:45:41;;;;;;;8.53;5.77;;;13.80;63.50;;;;;;4997968;28;20176;-55
2023/05/19 12:48:16;;;;;;;7.60;5.30;;;13.90;63.30;;;;;;4997906;28;20521;-56
2023/05/19 12:50:46;;;;;;;14.83;5.07;;;14.00;62.80;;;;;;4998763;28;20502;-59